Latest Coastal Weather Observations for Port Fairy

IDV60701

Issued at 12:05 am EST Saturday 2 August 2014 (issued every 10 minutes, with the page automatically refreshed every 10 minutes)

About coastal observations | Map of coastal stations | Coastal observations for VIC | Marine services | Other Formats
Station Details ID: 090175 Name: PORT FAIRY AWS Lat: -38.39 Lon: 142.23 Height: 10.0 m
Data from the previous 72 hours. | See also: Recent months at Port Fairy
Date/Time
EST
Temp

°C
Wind Pressure Rain
since 9am
mm
Weather Cloud Vis
km
Sea
Height
m
Swell
Dir
 
Speed
knots
Gust
knots
hPa Trend Height
m
Period
s
Dir
02/12:00am 9.4 SSW 12 18 1024.8 - 2.4 - - - - - - -
 
Date/Time
EST
Temp

°C
Wind Pressure Rain
since 9am
mm
Weather Cloud Vis
km
Sea
Height
m
Swell
Dir
 
Speed
knots
Gust
knots
hPa Trend Height
m
Period
s
Dir
01/11:30pm 9.5 S 18 28 1024.4 - 2.4 - - - - - - -
01/11:27pm 10.0 SSW 16 28 1024.3 - 2.4 - - - - - - -
01/11:00pm 10.3 SSW 13 20 1023.9 - 2.4 - - - - - - -
01/10:30pm 9.1 S 10 15 1023.6 - 2.4 - - - - - - -
01/10:00pm 10.5 SSW 15 21 1022.9 - 2.4 - - - - - - -
01/09:30pm 10.5 S 16 26 1022.4 - 2.4 - - - - - - -
01/09:27pm 10.7 S 16 26 1022.3 - 2.4 - - - - - - -
01/09:00pm 10.2 SSW 15 20 1021.8 - 2.4 Recent precip. - - - - - -
01/08:30pm 9.7 S 19 28 1021.3 - 2.4 - - - - - - -
01/08:20pm 9.9 S 20 26 1020.9 - 2.4 - - - - - - -
01/08:01pm 9.9 SW 19 30 1020.8 - 2.2 - - - - - - -
01/08:00pm 9.9 SW 19 27 1020.8 - 2.2 - - - - - - -
01/07:31pm 8.8 S 18 29 1020.0 - 2.2 - - - - - - -
01/07:30pm 8.6 S 19 29 1019.9 - 2.2 - - - - - - -
01/07:02pm 9.9 SSW 17 27 1019.1 - 2.2 - - - - - - -
01/07:00pm 9.8 SSW 17 24 1019.0 - 2.2 - - - - - - -
01/06:30pm 10.2 SW 20 34 1018.4 - 2.0 - - - - - - -
01/06:00pm 10.1 SSW 17 29 1017.7 - 2.0 Recent precip. - - - - - -
01/05:36pm 9.5 SW 19 31 1017.3 - 1.8 - - - - - - -
01/05:30pm 9.2 SW 21 30 1017.0 - 1.8 - - - - - - -
01/05:16pm 9.8 SSW 22 36 1016.5 - 1.8 - - - - - - -
01/05:00pm 10.2 SSW 22 29 1016.0 - 1.8 - - - - - - -
01/04:48pm 10.2 SW 22 33 1015.7 - 1.8 - - - - - - -
01/04:30pm 9.3 SW 23 31 1015.4 - 1.8 - - - - - - -
01/04:10pm 9.8 SW 20 33 1015.4 - 1.6 - - - - - - -
01/04:00pm 9.7 SW 18 25 1014.8 - 1.6 - - - - - - -
01/03:30pm 9.0 SW 26 36 1014.3 - 1.6 - - - - - - -
01/03:12pm 10.6 SW 24 35 1013.4 - 1.4 - - - - - - -
01/03:00pm 10.4 SW 24 32 1013.0 - 1.4 - - - - - - -
01/02:44pm 9.9 SW 24 34 1012.6 - 1.4 - - - - - - -
01/02:30pm 10.2 SW 24 32 1012.2 - 1.4 - - - - - - -
01/02:10pm 10.2 SW 26 36 1011.7 - 1.4 - - - - - - -
01/02:00pm 10.0 SW 29 36 1011.5 - 1.4 - - - - - - -
01/01:30pm 9.7 SSW 28 43 1011.0 - 1.4 - - - - - - -
01/01:00pm 10.5 SSW 29 41 1010.1 - 1.4 - - - - - - -
01/12:32pm 9.4 SW 26 43 1009.7 - 1.2 - - - - - - -
01/12:30pm 9.4 SW 25 33 1009.7 - 1.2 - - - - - - -
01/12:00pm 9.7 SW 26 37 1009.0 - 0.8 - - - - - - -
01/11:30am 10.1 SSW 26 41 1008.0 - 0.8 - - - - - - -
01/11:00am 10.3 SSW 28 40 1006.7 - 0.8 - - - - - - -
01/10:58am 10.0 SSW 25 40 1006.6 - 0.8 - - - - - - -
01/10:34am 9.4 S 19 31 1006.0 - 0.6 - - - - - - -
01/10:30am 9.7 S 19 26 1005.9 - 0.6 - - - - - - -
01/10:08am 9.2 SSW 18 29 1005.4 - 0.2 - - - - - - -
01/10:00am 9.0 S 18 27 1005.2 - 0.0 - - - - - - -
01/09:35am 10.3 SSW 22 37 1004.4 - 0.0 - - - - - - -
01/09:30am 10.1 SSW 23 31 1004.1 - 0.0 - - - - - - -
01/09:02am 9.3 SW 24 36 1003.2 - 0.0 - - - - - - -
01/09:00am 9.3 SW 23 29 1003.1 - 18.2 - - - - - - -
01/08:47am 8.9 SW 25 36 1002.9 - 18.2 - - - - - - -
01/08:35am 6.8 SW 17 22 1002.3 - 18.2 - - - - - - -
01/08:31am 7.4 SW 31 41 1002.6 - 18.2 - - - - - - -
01/08:30am 7.4 SSW 32 41 1002.5 - 18.2 - - - - - - -
01/08:23am 7.4 SSW 34 41 1002.2 - 18.2 - - - - - - -
01/08:22am 8.0 SW 23 40 1002.2 - 18.2 - - - - - - -
01/08:07am 6.7 WSW 19 29 1001.8 - 18.2 - - - - - - -
01/08:00am 4.7 NW 7 17 1001.8 - 18.2 - - - - - - -
01/07:30am 5.1 NW 9 16 1000.4 - 16.8 - - - - - - -
01/07:00am 4.5 NNW 12 19 1000.5 - 16.6 - - - - - - -
01/06:44am 4.6 NNW 15 25 1000.1 - 16.0 - - - - - - -
01/06:30am 4.9 NNW 14 23 999.7 - 14.8 - - - - - - -
01/06:00am 4.7 NNW 11 16 999.7 - 14.8 Recent precip. - - - - - -
01/05:30am 4.9 NNW 13 22 1000.0 - 14.6 - - - - - - -
01/05:00am 5.3 NW 13 22 1000.5 - 13.8 - - - - - - -
01/04:30am 5.3 NNW 15 27 998.7 - 13.0 - - - - - - -
01/04:18am 5.2 NNW 16 27 998.6 - 13.0 - - - - - - -
01/04:00am 5.2 NNW 14 22 998.9 - 13.0 - - - - - - -
01/03:35am 5.6 NNW 16 26 999.4 - 12.6 - - - - - - -
01/03:30am 5.5 NNW 17 25 999.1 - 12.6 - - - - - - -
01/03:00am 5.2 NNW 15 24 999.9 - 12.6 - - - - - - -
01/02:30am 4.9 NNW 14 26 999.9 - 12.6 - - - - - - -
01/02:22am 4.8 NNW 15 26 999.9 - 12.6 - - - - - - -
01/02:00am 5.3 NNW 14 22 1000.2 - 12.6 - - - - - - -
01/01:30am 5.8 NNW 15 29 1000.5 - 12.6 - - - - - - -
01/01:20am 5.7 NNW 15 26 1000.5 - 12.6 - - - - - - -
01/01:00am 5.5 NNW 14 21 1000.4 - 12.6 - - - - - - -
01/12:30am 5.5 NNW 14 22 1000.3 - 12.6 - - - - - - -
01/12:00am 5.4 NNW 10 14 1000.8 - 12.4 Recent precip. - - - - - -
 
Date/Time
EST
Temp

°C
Wind Pressure Rain
since 9am
mm
Weather Cloud Vis
km
Sea
Height
m
Swell
Dir
 
Speed
knots
Gust
knots
hPa Trend Height
m
Period
s
Dir
31/11:30pm 5.6 NNW 9 14 1000.5 - 12.2 - - - - - - -
31/11:00pm 6.3 NNW 12 19 1001.2 - 11.6 - - - - - - -
31/10:30pm 6.3 NW 9 16 1000.7 - 11.6 - - - - - - -
31/10:00pm 7.1 NW 10 16 1000.3 - 11.6 - - - - - - -
31/09:30pm 8.7 W 19 30 1000.2 - 11.6 - - - - - - -
31/09:03pm 8.4 W 20 31 1000.1 - 11.6 - - - - - - -
31/09:00pm 8.2 W 19 26 1000.2 - 11.6 - - - - - - -
31/08:56pm 8.3 W 20 25 1000.1 - 11.6 - - - - - - -
31/08:42pm 8.7 W 31 42 1000.1 - 11.6 - - - - - - -
31/08:39pm 9.4 WSW 32 40 1000.1 - 11.6 - - - - - - -
31/08:30pm 9.5 W 20 32 999.6 - 11.6 - - - - - - -
31/08:01pm 8.3 WNW 16 26 999.2 - 11.6 - - - - - - -
31/08:00pm 8.2 WNW 16 25 999.2 - 11.6 - - - - - - -
31/07:30pm 8.2 W 19 34 998.9 - 11.2 - - - - - - -
31/07:07pm 8.9 W 18 29 998.6 - 11.2 - - - - - - -
31/07:00pm 8.7 W 20 29 998.5 - 11.2 - - - - - - -
31/06:58pm 8.5 W 20 29 998.4 - 11.2 - - - - - - -
31/06:53pm 8.7 W 33 43 998.9 - 11.2 - - - - - - -
31/06:52pm 9.1 W 21 43 998.9 - 11.2 - - - - - - -
31/06:33pm 8.5 WNW 18 28 998.2 - 11.2 - - - - - - -
31/06:30pm 8.5 WNW 19 28 998.2 - 11.2 - - - - - - -
31/06:25pm 7.9 WNW 18 28 998.2 - 11.2 - - - - - - -
31/06:23pm 7.7 WNW 19 26 998.2 - 11.2 - - - - - - -
31/06:00pm 9.0 W 25 38 997.8 - 11.2 Recent precip. - - - - - -
31/05:53pm 9.5 WSW 27 38 997.8 - 11.2 - - - - - - -
31/05:51pm 9.2 WSW 30 38 997.8 - 11.2 - - - - - - -
31/05:30pm 9.2 W 19 32 997.0 - 11.2 - - - - - - -
31/05:26pm 8.5 W 15 31 997.2 - 11.2 - - - - - - -
31/05:00pm 8.1 NW 12 19 996.9 - 11.0 - - - - - - -
31/04:30pm 8.2 NW 12 21 996.6 - 11.0 - - - - - - -
31/04:00pm 7.7 NW 13 22 996.4 - 11.0 - - - - - - -
31/03:47pm 7.5 NW 13 20 996.4 - 11.0 - - - - - - -
31/03:30pm 7.6 WNW 22 37 996.9 - 10.8 - - - - - - -
31/03:16pm 8.0 WNW 15 39 996.7 - 10.6 - - - - - - -
31/03:00pm 8.0 NW 14 29 996.4 - 10.4 Recent precip. - - - - - -
31/02:37pm 9.0 WNW 15 41 995.7 - 10.2 - - - - - - -
31/02:30pm 9.0 NW 13 24 995.5 - 10.0 - - - - - - -
31/02:00pm 8.6 WNW 14 23 995.1 - 10.0 - - - - - - -
31/01:44pm 8.2 WNW 23 34 995.8 - 10.0 - - - - - - -
31/01:43pm 8.2 WNW 24 34 995.9 - 10.0 - - - - - - -
31/01:34pm 8.3 W 38 49 996.1 - 10.0 - - - - - - -
31/01:30pm 8.6 WNW 24 46 995.9 - 10.0 - - - - - - -
31/01:28pm 8.5 WNW 22 46 995.7 - 10.0 - - - - - - -
31/01:00pm 8.7 W 22 34 995.4 - 9.6 - - - - - - -
31/12:30pm 9.2 W 30 43 995.2 - 9.2 - - - - - - -
31/12:00pm 9.3 W 28 41 995.3 - 8.0 Rain - - - - - -
31/11:50am 9.2 W 34 44 995.2 - 7.6 - - - - - - -
31/11:48am 9.2 W 36 44 995.2 - 7.6 - - - - - - -
31/11:30am 10.1 W 25 36 994.8 - 6.6 - - - - - - -
31/11:03am 10.4 WNW 15 26 994.3 - 4.6 - - - - - - -
31/11:00am 10.6 WNW 14 23 994.4 - 4.2 - - - - - - -
31/10:48am 10.8 W 21 31 994.0 - 2.6 - - - - - - -
31/10:42am 14.1 W 22 29 994.0 - 0.0 - - - - - - -
31/10:30am 14.6 NNW 21 34 992.7 - 0.0 - - - - - - -
31/10:00am 14.8 NNW 22 36 992.6 - 0.0 - - - - - - -
31/09:30am 14.2 NNW 24 38 992.9 - 0.0 - - - - - - -
31/09:00am 13.7 NNW 23 36 993.4 - 1.8 - - - - - - -
31/08:30am 13.3 NNW 18 31 994.6 - 1.8 - - - - - - -
31/08:00am 13.1 NNW 21 37 994.9 - 1.8 - - - - - - -
31/07:58am 13.1 NNW 21 37 995.0 - 1.8 - - - - - - -
31/07:30am 13.0 NNW 15 26 995.5 - 1.8 - - - - - - -
31/07:04am 12.7 NNW 17 30 995.9 - 1.8 - - - - - - -
31/07:00am 12.6 NNW 16 23 996.0 - 1.8 - - - - - - -
31/06:48am 12.6 NNW 15 26 996.3 - 1.8 - - - - - - -
31/06:30am 12.7 NNW 16 26 996.8 - 1.8 - - - - - - -
31/06:00am 13.7 NNW 16 29 996.8 - 1.8 - - - - - - -
31/05:30am 13.0 NNW 15 26 997.4 - 1.8 - - - - - - -
31/05:28am 13.0 NNW 15 26 997.5 - 1.8 - - - - - - -
31/05:00am 12.9 NNW 14 20 998.1 - 1.8 - - - - - - -
31/04:30am 13.4 NNW 17 28 998.5 - 1.8 - - - - - - -
31/04:11am 13.1 NNW 15 25 998.9 - 1.8 - - - - - - -
31/04:00am 12.7 NW 11 22 999.4 - 1.8 - - - - - - -
31/03:32am 14.0 NNW 16 26 999.9 - 1.6 - - - - - - -
31/03:30am 14.0 NNW 17 26 999.9 - 1.6 - - - - - - -
31/03:19am 14.0 NNW 16 28 1000.0 - 1.6 - - - - - - -
31/03:00am 13.9 NNW 15 25 1000.2 - 1.6 - - - - - - -
31/02:30am 13.7 NNW 13 21 1000.6 - 1.6 - - - - - - -
31/02:07am 13.7 NNW 15 25 1001.2 - 1.6 - - - - - - -
31/02:00am 13.7 NNW 15 25 1001.3 - 1.6 - - - - - - -
31/01:30am 13.5 NNW 15 24 1001.8 - 1.6 - - - - - - -
31/01:00am 13.5 NNW 15 25 1002.3 - 1.6 - - - - - - -
31/12:42am 13.3 NNW 15 27 1002.8 - 1.6 - - - - - - -
31/12:30am 13.1 NNW 14 22 1003.2 - 1.6 - - - - - - -
31/12:00am 13.3 NNW 15 24 1003.8 - 1.6 - - - - - - -
 
Date/Time
EST
Temp

°C
Wind Pressure Rain
since 9am
mm
Weather Cloud Vis
km
Sea
Height
m
Swell
Dir
 
Speed
knots
Gust
knots
hPa Trend Height
m
Period
s
Dir
30/11:38pm 13.5 NNW 15 26 1004.1 - 1.6 - - - - - - -
30/11:30pm 13.4 NNW 14 25 1004.2 - 1.6 - - - - - - -
30/11:03pm 13.4 NNW 15 25 1004.6 - 1.6 - - - - - - -
30/11:00pm 13.3 NNW 14 23 1004.6 - 1.6 - - - - - - -
30/10:30pm 12.8 NNW 13 20 1005.1 - 1.6 - - - - - - -
30/10:00pm 12.5 NNW 12 20 1005.6 - 1.6 - - - - - - -
30/09:30pm 13.5 NNW 19 31 1005.7 - 1.0 - - - - - - -
30/09:02pm 13.7 NNW 17 27 1005.5 - 1.0 - - - - - - -
30/09:00pm 13.7 NNW 16 26 1005.5 - 1.0 - - - - - - -
30/08:32pm 13.9 NNW 17 31 1005.9 - 1.0 - - - - - - -
30/08:30pm 13.8 NNW 17 26 1005.7 - 1.0 - - - - - - -
30/08:00pm 13.9 NNW 12 20 1006.2 - 1.0 - - - - - - -
30/07:30pm 13.7 NNW 11 19 1006.6 - 1.0 - - - - - - -
30/07:00pm 13.8 NW 11 17 1007.0 - 1.0 - - - - - - -
30/06:30pm 13.9 NNW 12 18 1006.9 - 1.0 - - - - - - -
30/06:00pm 14.1 NW 12 22 1006.9 - 1.0 - - - - - - -
30/05:30pm 14.3 NW 13 19 1007.0 - 1.0 - - - - - - -
30/05:03pm 14.6 NW 15 26 1006.6 - 1.0 - - - - - - -
30/05:00pm 14.6 NNW 14 24 1006.7 - 1.0 - - - - - - -
30/04:30pm 14.7 NW 13 26 1006.9 - 1.0 - - - - - - -
30/04:00pm 15.3 NW 14 25 1007.0 - 1.0 - - - - - - -
30/03:30pm 15.4 NW 12 24 1007.1 - 1.0 - - - - - - -
30/03:00pm 15.6 NW 13 20 1007.2 - 1.0 - - - - - - -
30/02:30pm 16.4 WNW 13 24 1007.3 - 1.0 - - - - - - -
30/02:00pm 15.9 WNW 14 24 1007.4 - 1.0 - - - - - - -
30/01:30pm 15.5 WNW 14 23 1007.8 - 1.0 - - - - - - -
30/01:00pm 14.4 WNW 15 26 1008.3 - 1.0 - - - - - - -
30/12:46pm 14.2 WNW 15 28 1008.5 - 1.0 - - - - - - -
30/12:30pm 14.1 NW 12 20 1008.9 - 1.0 - - - - - - -
30/12:10pm 14.7 WNW 15 26 1009.3 - 0.4 - - - - - - -
30/12:00pm 15.9 NW 12 22 1009.1 - 0.0 - - - - - - -
30/11:30am 15.8 NW 13 23 1009.4 - 0.0 - - - - - - -
30/11:00am 14.7 NW 12 21 1009.9 - 0.0 - - - - - - -
30/10:30am 13.9 NW 11 19 1010.0 - 0.0 - - - - - - -
30/10:00am 14.0 NNW 12 17 1010.0 - 0.0 - - - - - - -
30/09:30am 13.6 NNW 9 17 1010.0 - 0.0 - - - - - - -
30/09:00am 12.7 NNW 10 15 1010.4 - 6.0 - - - - - - -
30/08:30am 12.4 NNW 9 14 1010.1 - 6.0 - - - - - - -
30/08:00am 11.6 NNW 8 14 1010.1 - 6.0 - - - - - - -
30/07:30am 11.5 NNW 10 14 1009.7 - 6.0 - - - - - - -
30/07:00am 11.4 NNW 9 14 1009.4 - 6.0 - - - - - - -
30/06:30am 11.2 NNW 10 15 1009.3 - 6.0 - - - - - - -
30/06:00am 11.1 NNW 7 11 1009.3 - 6.0 - - - - - - -
30/05:30am 11.3 NNW 7 11 1009.5 - 6.0 - - - - - - -
30/05:00am 11.1 NNW 7 11 1009.7 - 6.0 - - - - - - -
30/04:30am 11.2 NW 8 13 1009.7 - 6.0 - - - - - - -
30/04:00am 11.4 NW 8 12 1009.7 - 6.0 - - - - - - -
30/03:30am 11.0 NW 8 11 1010.0 - 6.0 - - - - - - -
30/03:00am 11.0 NW 6 11 1010.1 - 6.0 - - - - - - -
30/02:30am 11.6 NW 6 10 1010.2 - 6.0 - - - - - - -
30/02:00am 12.7 W 13 22 1010.2 - 6.0 - - - - - - -
30/01:30am 12.3 W 13 21 1010.2 - 6.0 - - - - - - -
30/01:00am 12.5 NW 7 12 1010.0 - 6.0 - - - - - - -
30/12:30am 13.2 WNW 8 16 1009.9 - 6.0 - - - - - - -

Other Formats:

Comma delimited format used in spreadsheet applications
http://www.bom.gov.au/fwo/IDV60701/IDV60701.94830.axf

JavaScript Object Notation format (JSON) in row-major order
http://www.bom.gov.au/fwo/IDV60701/IDV60701.94830.json